sensor_id;sensor_type;location;lat;lon;timestamp;P1;durP1;ratioP1;P2;durP2;ratioP2
21138;SDS011;10727;43.600;1.444;2023-07-20T00:03:11;11.02;;;5.28;;
21138;SDS011;10727;43.600;1.444;2023-07-20T00:06:19;8.75;;;4.57;;
21138;SDS011;10727;43.600;1.444;2023-07-20T00:09:26;9.30;;;4.75;;
21138;SDS011;10727;43.600;1.444;2023-07-20T00:12:31;9.43;;;4.50;;
21138;SDS011;10727;43.600;1.444;2023-07-20T00:15:36;8.57;;;4.28;;
21138;SDS011;10727;43.600;1.444;2023-07-20T00:18:43;9.50;;;4.38;;
21138;SDS011;10727;43.600;1.444;2023-07-20T00:21:47;10.77;;;4.50;;
21138;SDS011;10727;43.600;1.444;2023-07-20T00:24:54;9.15;;;4.15;;
21138;SDS011;10727;43.600;1.444;2023-07-20T00:27:59;10.18;;;4.50;;
21138;SDS011;10727;43.600;1.444;2023-07-20T00:31:04;9.20;;;4.45;;
21138;SDS011;10727;43.600;1.444;2023-07-20T00:34:09;10.40;;;5.03;;
21138;SDS011;10727;43.600;1.444;2023-07-20T00:37:14;13.27;;;4.82;;
21138;SDS011;10727;43.600;1.444;2023-07-20T00:40:21;7.75;;;4.22;;
21138;SDS011;10727;43.600;1.444;2023-07-20T00:43:27;7.63;;;4.68;;
21138;SDS011;10727;43.600;1.444;2023-07-20T00:46:32;7.72;;;4.28;;
21138;SDS011;10727;43.600;1.444;2023-07-20T00:49:37;10.15;;;4.82;;
21138;SDS011;10727;43.600;1.444;2023-07-20T00:52:42;7.13;;;4.38;;
21138;SDS011;10727;43.600;1.444;2023-07-20T00:55:49;8.80;;;4.88;;
21138;SDS011;10727;43.600;1.444;2023-07-20T00:58:54;8.20;;;4.75;;
21138;SDS011;10727;43.600;1.444;2023-07-20T01:01:59;9.23;;;4.43;;
21138;SDS011;10727;43.600;1.444;2023-07-20T01:05:04;5.82;;;4.07;;
21138;SDS011;10727;43.600;1.444;2023-07-20T01:08:11;7.00;;;4.50;;
21138;SDS011;10727;43.600;1.444;2023-07-20T01:11:23;6.63;;;4.55;;
21138;SDS011;10727;43.600;1.444;2023-07-20T01:14:28;7.28;;;4.25;;
21138;SDS011;10727;43.600;1.444;2023-07-20T01:17:34;6.55;;;4.30;;
21138;SDS011;10727;43.600;1.444;2023-07-20T01:20:39;9.18;;;4.82;;
21138;SDS011;10727;43.600;1.444;2023-07-20T01:23:53;7.45;;;4.65;;
21138;SDS011;10727;43.600;1.444;2023-07-20T01:27:16;7.22;;;4.03;;
21138;SDS011;10727;43.600;1.444;2023-07-20T01:30:43;10.07;;;4.53;;
21138;SDS011;10727;43.600;1.444;2023-07-20T01:33:53;8.27;;;4.65;;
21138;SDS011;10727;43.600;1.444;2023-07-20T01:36:59;7.65;;;4.63;;
21138;SDS011;10727;43.600;1.444;2023-07-20T01:40:05;10.30;;;4.25;;
21138;SDS011;10727;43.600;1.444;2023-07-20T01:43:11;9.40;;;5.05;;
21138;SDS011;10727;43.600;1.444;2023-07-20T01:46:16;8.18;;;4.88;;
21138;SDS011;10727;43.600;1.444;2023-07-20T01:49:23;9.57;;;4.20;;
21138;SDS011;10727;43.600;1.444;2023-07-20T01:52:28;7.82;;;4.10;;
21138;SDS011;10727;43.600;1.444;2023-07-20T01:55:34;6.95;;;4.43;;
21138;SDS011;10727;43.600;1.444;2023-07-20T01:58:38;10.48;;;4.47;;
21138;SDS011;10727;43.600;1.444;2023-07-20T02:01:43;8.35;;;4.50;;
21138;SDS011;10727;43.600;1.444;2023-07-20T02:04:50;7.03;;;4.13;;
21138;SDS011;10727;43.600;1.444;2023-07-20T02:07:55;6.90;;;4.25;;
21138;SDS011;10727;43.600;1.444;2023-07-20T02:11:00;9.18;;;4.55;;
21138;SDS011;10727;43.600;1.444;2023-07-20T02:14:08;6.15;;;4.03;;
21138;SDS011;10727;43.600;1.444;2023-07-20T02:17:13;6.82;;;4.45;;
21138;SDS011;10727;43.600;1.444;2023-07-20T02:20:19;7.53;;;4.40;;
21138;SDS011;10727;43.600;1.444;2023-07-20T02:23:24;6.72;;;3.90;;
21138;SDS011;10727;43.600;1.444;2023-07-20T02:26:29;8.00;;;4.25;;
21138;SDS011;10727;43.600;1.444;2023-07-20T02:29:34;6.35;;;4.03;;
21138;SDS011;10727;43.600;1.444;2023-07-20T02:32:40;7.43;;;3.78;;
21138;SDS011;10727;43.600;1.444;2023-07-20T02:35:50;7.18;;;4.03;;
21138;SDS011;10727;43.600;1.444;2023-07-20T02:38:55;7.95;;;4.53;;
21138;SDS011;10727;43.600;1.444;2023-07-20T02:42:00;10.10;;;4.03;;
21138;SDS011;10727;43.600;1.444;2023-07-20T02:45:06;6.10;;;3.83;;
21138;SDS011;10727;43.600;1.444;2023-07-20T02:48:11;7.10;;;4.50;;
21138;SDS011;10727;43.600;1.444;2023-07-20T02:51:18;6.95;;;4.18;;
21138;SDS011;10727;43.600;1.444;2023-07-20T02:54:23;6.35;;;4.10;;
21138;SDS011;10727;43.600;1.444;2023-07-20T02:57:28;6.90;;;4.00;;
21138;SDS011;10727;43.600;1.444;2023-07-20T03:00:33;7.68;;;4.10;;
21138;SDS011;10727;43.600;1.444;2023-07-20T03:03:38;6.93;;;4.10;;
21138;SDS011;10727;43.600;1.444;2023-07-20T03:06:45;8.32;;;4.20;;
21138;SDS011;10727;43.600;1.444;2023-07-20T03:09:50;8.73;;;4.45;;
21138;SDS011;10727;43.600;1.444;2023-07-20T03:12:55;7.63;;;4.28;;
21138;SDS011;10727;43.600;1.444;2023-07-20T03:16:00;7.60;;;3.92;;
21138;SDS011;10727;43.600;1.444;2023-07-20T03:19:06;6.35;;;3.83;;
21138;SDS011;10727;43.600;1.444;2023-07-20T03:22:12;7.60;;;4.05;;
21138;SDS011;10727;43.600;1.444;2023-07-20T03:25:18;8.77;;;4.15;;
21138;SDS011;10727;43.600;1.444;2023-07-20T03:28:24;6.10;;;4.13;;
21138;SDS011;10727;43.600;1.444;2023-07-20T03:31:29;6.53;;;3.92;;
21138;SDS011;10727;43.600;1.444;2023-07-20T03:34:35;6.47;;;3.80;;
21138;SDS011;10727;43.600;1.444;2023-07-20T03:37:41;8.52;;;3.95;;
21138;SDS011;10727;43.600;1.444;2023-07-20T03:40:50;6.85;;;3.88;;
21138;SDS011;10727;43.600;1.444;2023-07-20T03:43:55;7.65;;;3.90;;
21138;SDS011;10727;43.600;1.444;2023-07-20T03:47:00;5.65;;;3.67;;
21138;SDS011;10727;43.600;1.444;2023-07-20T03:50:06;6.18;;;3.95;;
21138;SDS011;10727;43.600;1.444;2023-07-20T03:53:15;9.27;;;4.10;;
21138;SDS011;10727;43.600;1.444;2023-07-20T03:56:20;6.55;;;3.88;;
21138;SDS011;10727;43.600;1.444;2023-07-20T03:59:26;5.90;;;3.97;;
21138;SDS011;10727;43.600;1.444;2023-07-20T04:02:31;9.27;;;4.07;;
21138;SDS011;10727;43.600;1.444;2023-07-20T04:05:36;5.93;;;3.85;;
21138;SDS011;10727;43.600;1.444;2023-07-20T04:08:42;9.68;;;4.07;;
21138;SDS011;10727;43.600;1.444;2023-07-20T04:11:47;6.45;;;4.15;;
21138;SDS011;10727;43.600;1.444;2023-07-20T04:14:52;8.00;;;3.67;;
21138;SDS011;10727;43.600;1.444;2023-07-20T04:17:57;6.07;;;3.33;;
21138;SDS011;10727;43.600;1.444;2023-07-20T04:21:03;4.38;;;3.35;;
21138;SDS011;10727;43.600;1.444;2023-07-20T04:24:10;6.50;;;3.10;;
21138;SDS011;10727;43.600;1.444;2023-07-20T04:27:15;9.00;;;3.13;;
21138;SDS011;10727;43.600;1.444;2023-07-20T04:30:21;4.75;;;2.78;;
21138;SDS011;10727;43.600;1.444;2023-07-20T04:33:26;5.03;;;2.80;;
21138;SDS011;10727;43.600;1.444;2023-07-20T04:36:32;7.20;;;3.10;;
21138;SDS011;10727;43.600;1.444;2023-07-20T04:39:38;4.82;;;2.75;;
21138;SDS011;10727;43.600;1.444;2023-07-20T04:42:47;6.35;;;3.03;;
21138;SDS011;10727;43.600;1.444;2023-07-20T04:45:52;5.07;;;3.17;;
21138;SDS011;10727;43.600;1.444;2023-07-20T04:48:57;5.10;;;2.90;;
21138;SDS011;10727;43.600;1.444;2023-07-20T04:52:04;3.67;;;2.65;;
21138;SDS011;10727;43.600;1.444;2023-07-20T04:55:11;4.55;;;2.70;;
21138;SDS011;10727;43.600;1.444;2023-07-20T04:58:16;6.07;;;3.15;;
21138;SDS011;10727;43.600;1.444;2023-07-20T05:01:22;6.82;;;3.22;;
21138;SDS011;10727;43.600;1.444;2023-07-20T05:04:27;5.78;;;2.70;;
21138;SDS011;10727;43.600;1.444;2023-07-20T05:07:32;3.80;;;3.08;;
21138;SDS011;10727;43.600;1.444;2023-07-20T05:10:38;3.40;;;2.67;;
21138;SDS011;10727;43.600;1.444;2023-07-20T05:13:44;6.38;;;3.00;;
21138;SDS011;10727;43.600;1.444;2023-07-20T05:16:49;6.38;;;2.60;;
21138;SDS011;10727;43.600;1.444;2023-07-20T05:19:54;7.07;;;2.80;;
21138;SDS011;10727;43.600;1.444;2023-07-20T05:22:59;7.10;;;2.95;;
21138;SDS011;10727;43.600;1.444;2023-07-20T05:26:06;6.30;;;2.95;;
21138;SDS011;10727;43.600;1.444;2023-07-20T05:29:12;7.15;;;2.83;;
21138;SDS011;10727;43.600;1.444;2023-07-20T05:32:17;7.28;;;2.75;;
21138;SDS011;10727;43.600;1.444;2023-07-20T05:35:22;3.20;;;2.55;;
21138;SDS011;10727;43.600;1.444;2023-07-20T05:38:27;8.32;;;2.80;;
21138;SDS011;10727;43.600;1.444;2023-07-20T05:41:34;4.13;;;3.17;;
21138;SDS011;10727;43.600;1.444;2023-07-20T05:44:39;4.50;;;2.58;;
21138;SDS011;10727;43.600;1.444;2023-07-20T05:47:44;6.03;;;2.65;;
21138;SDS011;10727;43.600;1.444;2023-07-20T05:50:49;2.78;;;2.25;;
21138;SDS011;10727;43.600;1.444;2023-07-20T05:53:54;4.32;;;2.47;;
21138;SDS011;10727;43.600;1.444;2023-07-20T05:57:01;4.05;;;2.20;;
21138;SDS011;10727;43.600;1.444;2023-07-20T06:00:07;6.20;;;2.50;;
21138;SDS011;10727;43.600;1.444;2023-07-20T06:03:15;3.55;;;2.13;;
21138;SDS011;10727;43.600;1.444;2023-07-20T06:06:21;4.05;;;2.53;;
21138;SDS011;10727;43.600;1.444;2023-07-20T06:09:26;5.78;;;2.53;;
21138;SDS011;10727;43.600;1.444;2023-07-20T06:12:34;3.30;;;2.38;;
21138;SDS011;10727;43.600;1.444;2023-07-20T06:15:40;4.32;;;2.28;;
21138;SDS011;10727;43.600;1.444;2023-07-20T06:18:45;5.20;;;2.35;;
21138;SDS011;10727;43.600;1.444;2023-07-20T06:21:50;6.78;;;2.53;;
21138;SDS011;10727;43.600;1.444;2023-07-20T06:24:55;3.97;;;2.40;;
21138;SDS011;10727;43.600;1.444;2023-07-20T06:28:02;6.97;;;2.75;;
21138;SDS011;10727;43.600;1.444;2023-07-20T06:31:08;5.90;;;2.70;;
21138;SDS011;10727;43.600;1.444;2023-07-20T06:34:14;7.28;;;3.35;;
21138;SDS011;10727;43.600;1.444;2023-07-20T06:37:19;8.27;;;2.63;;
21138;SDS011;10727;43.600;1.444;2023-07-20T06:40:24;4.38;;;2.50;;
21138;SDS011;10727;43.600;1.444;2023-07-20T06:43:31;6.63;;;2.72;;
21138;SDS011;10727;43.600;1.444;2023-07-20T06:46:36;5.03;;;2.72;;
21138;SDS011;10727;43.600;1.444;2023-07-20T06:49:41;3.70;;;2.60;;
21138;SDS011;10727;43.600;1.444;2023-07-20T06:52:47;6.82;;;3.00;;
21138;SDS011;10727;43.600;1.444;2023-07-20T06:55:52;6.85;;;2.67;;
21138;SDS011;10727;43.600;1.444;2023-07-20T06:59:01;5.65;;;2.40;;
21138;SDS011;10727;43.600;1.444;2023-07-20T07:02:06;6.35;;;2.75;;
21138;SDS011;10727;43.600;1.444;2023-07-20T07:05:11;4.65;;;2.80;;
21138;SDS011;10727;43.600;1.444;2023-07-20T07:08:18;8.25;;;3.08;;
21138;SDS011;10727;43.600;1.444;2023-07-20T07:11:24;12.45;;;4.28;;
21138;SDS011;10727;43.600;1.444;2023-07-20T07:14:30;6.20;;;3.22;;
21138;SDS011;10727;43.600;1.444;2023-07-20T07:17:35;5.10;;;2.72;;
21138;SDS011;10727;43.600;1.444;2023-07-20T07:20:41;6.40;;;2.92;;
21138;SDS011;10727;43.600;1.444;2023-07-20T07:23:46;7.43;;;2.60;;
21138;SDS011;10727;43.600;1.444;2023-07-20T07:26:52;4.68;;;2.50;;
21138;SDS011;10727;43.600;1.444;2023-07-20T07:29:59;6.65;;;2.22;;
21138;SDS011;10727;43.600;1.444;2023-07-20T07:33:04;6.93;;;2.42;;
21138;SDS011;10727;43.600;1.444;2023-07-20T07:36:09;4.90;;;2.40;;
21138;SDS011;10727;43.600;1.444;2023-07-20T07:39:14;7.30;;;2.50;;
21138;SDS011;10727;43.600;1.444;2023-07-20T07:42:19;6.63;;;2.70;;
21138;SDS011;10727;43.600;1.444;2023-07-20T07:45:26;8.82;;;2.58;;
21138;SDS011;10727;43.600;1.444;2023-07-20T07:48:31;4.38;;;2.30;;
21138;SDS011;10727;43.600;1.444;2023-07-20T07:51:36;5.05;;;2.47;;
21138;SDS011;10727;43.600;1.444;2023-07-20T07:54:41;5.30;;;2.33;;
21138;SDS011;10727;43.600;1.444;2023-07-20T07:57:46;8.02;;;2.47;;
21138;SDS011;10727;43.600;1.444;2023-07-20T08:00:53;6.25;;;2.85;;
21138;SDS011;10727;43.600;1.444;2023-07-20T08:03:58;6.78;;;3.95;;
21138;SDS011;10727;43.600;1.444;2023-07-20T08:07:03;3.33;;;2.30;;
21138;SDS011;10727;43.600;1.444;2023-07-20T08:10:09;5.45;;;2.50;;
21138;SDS011;10727;43.600;1.444;2023-07-20T08:13:14;4.53;;;2.30;;
21138;SDS011;10727;43.600;1.444;2023-07-20T08:16:21;7.32;;;2.83;;
21138;SDS011;10727;43.600;1.444;2023-07-20T08:19:26;5.72;;;2.00;;
21138;SDS011;10727;43.600;1.444;2023-07-20T08:22:31;6.97;;;2.20;;
21138;SDS011;10727;43.600;1.444;2023-07-20T08:25:36;4.95;;;2.28;;
21138;SDS011;10727;43.600;1.444;2023-07-20T08:28:44;3.55;;;2.17;;
21138;SDS011;10727;43.600;1.444;2023-07-20T08:31:52;4.72;;;2.03;;
21138;SDS011;10727;43.600;1.444;2023-07-20T08:34:57;8.02;;;2.10;;
21138;SDS011;10727;43.600;1.444;2023-07-20T08:38:02;5.78;;;2.17;;
21138;SDS011;10727;43.600;1.444;2023-07-20T08:41:08;6.10;;;2.08;;
21138;SDS011;10727;43.600;1.444;2023-07-20T08:44:14;4.85;;;1.90;;
21138;SDS011;10727;43.600;1.444;2023-07-20T08:47:20;7.63;;;2.55;;
21138;SDS011;10727;43.600;1.444;2023-07-20T08:50:26;6.38;;;2.42;;
21138;SDS011;10727;43.600;1.444;2023-07-20T08:53:31;4.80;;;1.95;;
21138;SDS011;10727;43.600;1.444;2023-07-20T08:56:37;5.88;;;2.95;;
21138;SDS011;10727;43.600;1.444;2023-07-20T08:59:43;3.78;;;1.98;;
21138;SDS011;10727;43.600;1.444;2023-07-20T09:02:50;5.30;;;2.00;;
21138;SDS011;10727;43.600;1.444;2023-07-20T09:05:55;5.25;;;2.28;;
21138;SDS011;10727;43.600;1.444;2023-07-20T09:09:01;7.47;;;1.98;;
21138;SDS011;10727;43.600;1.444;2023-07-20T09:12:06;4.95;;;1.83;;
21138;SDS011;10727;43.600;1.444;2023-07-20T09:15:18;9.48;;;2.30;;
21138;SDS011;10727;43.600;1.444;2023-07-20T09:18:26;7.72;;;2.00;;
21138;SDS011;10727;43.600;1.444;2023-07-20T09:21:32;5.03;;;2.20;;
21138;SDS011;10727;43.600;1.444;2023-07-20T09:24:37;3.40;;;1.83;;
21138;SDS011;10727;43.600;1.444;2023-07-20T09:27:42;5.45;;;2.08;;
21138;SDS011;10727;43.600;1.444;2023-07-20T09:30:48;6.35;;;1.98;;
21138;SDS011;10727;43.600;1.444;2023-07-20T09:33:54;3.13;;;1.70;;
21138;SDS011;10727;43.600;1.444;2023-07-20T09:36:59;3.50;;;1.50;;
21138;SDS011;10727;43.600;1.444;2023-07-20T09:40:06;4.65;;;2.10;;
21138;SDS011;10727;43.600;1.444;2023-07-20T09:43:11;3.80;;;1.80;;
21138;SDS011;10727;43.600;1.444;2023-07-20T09:46:16;3.10;;;1.70;;
21138;SDS011;10727;43.600;1.444;2023-07-20T09:49:24;3.38;;;1.88;;
21138;SDS011;10727;43.600;1.444;2023-07-20T09:52:29;5.20;;;1.98;;
21138;SDS011;10727;43.600;1.444;2023-07-20T09:55:34;3.47;;;2.15;;
21138;SDS011;10727;43.600;1.444;2023-07-20T09:58:40;5.40;;;2.10;;
21138;SDS011;10727;43.600;1.444;2023-07-20T10:01:46;7.28;;;3.78;;
21138;SDS011;10727;43.600;1.444;2023-07-20T10:04:53;6.30;;;2.42;;
21138;SDS011;10727;43.600;1.444;2023-07-20T10:07:59;5.28;;;2.03;;
21138;SDS011;10727;43.600;1.444;2023-07-20T10:11:04;10.65;;;2.75;;
21138;SDS011;10727;43.600;1.444;2023-07-20T10:14:09;4.32;;;2.30;;
21138;SDS011;10727;43.600;1.444;2023-07-20T10:17:16;7.15;;;2.33;;
21138;SDS011;10727;43.600;1.444;2023-07-20T10:20:23;5.47;;;2.25;;
21138;SDS011;10727;43.600;1.444;2023-07-20T10:23:29;4.82;;;1.77;;
21138;SDS011;10727;43.600;1.444;2023-07-20T10:26:34;8.90;;;2.08;;
21138;SDS011;10727;43.600;1.444;2023-07-20T10:29:39;7.60;;;2.40;;
21138;SDS011;10727;43.600;1.444;2023-07-20T10:32:44;6.00;;;2.08;;
21138;SDS011;10727;43.600;1.444;2023-07-20T10:35:54;5.22;;;1.95;;
21138;SDS011;10727;43.600;1.444;2023-07-20T10:39:00;4.50;;;1.95;;
21138;SDS011;10727;43.600;1.444;2023-07-20T10:42:06;7.82;;;2.28;;
21138;SDS011;10727;43.600;1.444;2023-07-20T10:45:11;4.80;;;2.10;;
21138;SDS011;10727;43.600;1.444;2023-07-20T10:48:17;5.78;;;2.40;;
21138;SDS011;10727;43.600;1.444;2023-07-20T10:51:23;5.85;;;2.30;;
21138;SDS011;10727;43.600;1.444;2023-07-20T10:54:47;4.63;;;2.13;;
21138;SDS011;10727;43.600;1.444;2023-07-20T10:58:05;7.20;;;2.38;;
21138;SDS011;10727;43.600;1.444;2023-07-20T11:01:12;5.65;;;2.17;;
21138;SDS011;10727;43.600;1.444;2023-07-20T11:04:18;4.82;;;2.63;;
21138;SDS011;10727;43.600;1.444;2023-07-20T11:07:37;7.38;;;2.20;;
21138;SDS011;10727;43.600;1.444;2023-07-20T11:10:42;5.95;;;3.30;;
21138;SDS011;10727;43.600;1.444;2023-07-20T11:13:53;8.25;;;2.88;;
21138;SDS011;10727;43.600;1.444;2023-07-20T11:16:58;6.90;;;3.47;;
21138;SDS011;10727;43.600;1.444;2023-07-20T11:20:15;10.65;;;2.83;;
21138;SDS011;10727;43.600;1.444;2023-07-20T11:23:22;5.07;;;2.55;;
21138;SDS011;10727;43.600;1.444;2023-07-20T11:26:27;7.63;;;2.75;;
21138;SDS011;10727;43.600;1.444;2023-07-20T11:29:32;8.65;;;2.70;;
21138;SDS011;10727;43.600;1.444;2023-07-20T11:32:47;8.80;;;2.65;;
21138;SDS011;10727;43.600;1.444;2023-07-20T11:35:52;7.07;;;2.88;;
21138;SDS011;10727;43.600;1.444;2023-07-20T11:38:58;7.47;;;2.60;;
21138;SDS011;10727;43.600;1.444;2023-07-20T11:42:04;4.38;;;2.33;;
21138;SDS011;10727;43.600;1.444;2023-07-20T11:45:09;6.55;;;2.67;;
21138;SDS011;10727;43.600;1.444;2023-07-20T11:48:15;8.82;;;2.70;;
21138;SDS011;10727;43.600;1.444;2023-07-20T11:51:20;3.10;;;2.00;;
21138;SDS011;10727;43.600;1.444;2023-07-20T11:54:26;4.40;;;2.80;;
21138;SDS011;10727;43.600;1.444;2023-07-20T11:57:32;5.75;;;2.88;;
21138;SDS011;10727;43.600;1.444;2023-07-20T12:00:38;7.47;;;2.13;;
21138;SDS011;10727;43.600;1.444;2023-07-20T12:03:43;6.22;;;2.15;;
21138;SDS011;10727;43.600;1.444;2023-07-20T12:06:48;6.32;;;2.47;;
21138;SDS011;10727;43.600;1.444;2023-07-20T12:10:04;6.25;;;2.53;;
21138;SDS011;10727;43.600;1.444;2023-07-20T12:13:10;6.20;;;2.10;;
21138;SDS011;10727;43.600;1.444;2023-07-20T12:16:16;7.10;;;2.42;;
21138;SDS011;10727;43.600;1.444;2023-07-20T12:19:24;4.03;;;1.83;;
21138;SDS011;10727;43.600;1.444;2023-07-20T12:22:30;3.72;;;1.70;;
21138;SDS011;10727;43.600;1.444;2023-07-20T12:25:40;3.63;;;2.33;;
21138;SDS011;10727;43.600;1.444;2023-07-20T12:28:45;3.88;;;2.25;;
21138;SDS011;10727;43.600;1.444;2023-07-20T12:31:50;9.13;;;3.63;;
21138;SDS011;10727;43.600;1.444;2023-07-20T12:34:55;4.60;;;2.60;;
21138;SDS011;10727;43.600;1.444;2023-07-20T12:38:01;4.13;;;3.22;;
21138;SDS011;10727;43.600;1.444;2023-07-20T12:41:09;4.40;;;2.00;;
21138;SDS011;10727;43.600;1.444;2023-07-20T12:44:16;4.45;;;2.30;;
21138;SDS011;10727;43.600;1.444;2023-07-20T12:47:21;6.00;;;2.42;;
21138;SDS011;10727;43.600;1.444;2023-07-20T12:50:26;3.22;;;1.80;;
21138;SDS011;10727;43.600;1.444;2023-07-20T12:53:31;4.57;;;2.35;;
21138;SDS011;10727;43.600;1.444;2023-07-20T12:56:38;6.90;;;2.40;;
21138;SDS011;10727;43.600;1.444;2023-07-20T12:59:44;4.20;;;2.50;;
21138;SDS011;10727;43.600;1.444;2023-07-20T13:02:49;5.45;;;2.00;;
21138;SDS011;10727;43.600;1.444;2023-07-20T13:05:54;3.50;;;2.00;;
21138;SDS011;10727;43.600;1.444;2023-07-20T13:09:01;6.43;;;2.10;;
21138;SDS011;10727;43.600;1.444;2023-07-20T13:12:08;5.80;;;2.33;;
21138;SDS011;10727;43.600;1.444;2023-07-20T13:15:13;3.40;;;2.25;;
21138;SDS011;10727;43.600;1.444;2023-07-20T13:18:18;3.95;;;2.70;;
21138;SDS011;10727;43.600;1.444;2023-07-20T13:21:23;3.63;;;2.10;;
21138;SDS011;10727;43.600;1.444;2023-07-20T13:24:28;7.75;;;3.00;;
21138;SDS011;10727;43.600;1.444;2023-07-20T13:27:35;4.60;;;2.70;;
21138;SDS011;10727;43.600;1.444;2023-07-20T13:30:41;8.15;;;3.67;;
21138;SDS011;10727;43.600;1.444;2023-07-20T13:33:48;8.02;;;2.20;;
21138;SDS011;10727;43.600;1.444;2023-07-20T13:36:53;4.43;;;2.17;;
21138;SDS011;10727;43.600;1.444;2023-07-20T13:39:58;2.85;;;1.85;;
21138;SDS011;10727;43.600;1.444;2023-07-20T13:43:05;5.85;;;2.13;;
21138;SDS011;10727;43.600;1.444;2023-07-20T13:46:09;5.30;;;2.08;;
21138;SDS011;10727;43.600;1.444;2023-07-20T13:49:15;8.90;;;2.35;;
21138;SDS011;10727;43.600;1.444;2023-07-20T13:52:20;4.72;;;2.47;;
21138;SDS011;10727;43.600;1.444;2023-07-20T13:55:25;3.00;;;2.10;;
21138;SDS011;10727;43.600;1.444;2023-07-20T13:58:32;4.32;;;2.28;;
21138;SDS011;10727;43.600;1.444;2023-07-20T14:01:38;3.72;;;2.20;;
21138;SDS011;10727;43.600;1.444;2023-07-20T14:04:43;5.63;;;2.45;;
21138;SDS011;10727;43.600;1.444;2023-07-20T14:07:48;4.28;;;2.10;;
21138;SDS011;10727;43.600;1.444;2023-07-20T14:10:53;5.57;;;2.10;;
21138;SDS011;10727;43.600;1.444;2023-07-20T14:13:59;3.38;;;2.28;;
21138;SDS011;10727;43.600;1.444;2023-07-20T14:17:05;4.57;;;2.20;;
21138;SDS011;10727;43.600;1.444;2023-07-20T14:20:10;4.70;;;1.90;;
21138;SDS011;10727;43.600;1.444;2023-07-20T14:23:15;3.00;;;2.20;;
21138;SDS011;10727;43.600;1.444;2023-07-20T14:26:21;3.38;;;1.80;;
21138;SDS011;10727;43.600;1.444;2023-07-20T14:29:27;9.05;;;2.35;;
21138;SDS011;10727;43.600;1.444;2023-07-20T14:32:34;3.72;;;2.60;;
21138;SDS011;10727;43.600;1.444;2023-07-20T14:35:39;9.18;;;2.55;;
21138;SDS011;10727;43.600;1.444;2023-07-20T14:38:44;4.35;;;2.42;;
21138;SDS011;10727;43.600;1.444;2023-07-20T14:41:49;3.28;;;2.20;;
21138;SDS011;10727;43.600;1.444;2023-07-20T14:44:56;4.30;;;2.22;;
21138;SDS011;10727;43.600;1.444;2023-07-20T14:48:01;5.47;;;2.60;;
21138;SDS011;10727;43.600;1.444;2023-07-20T14:51:06;6.15;;;2.38;;
21138;SDS011;10727;43.600;1.444;2023-07-20T14:54:11;2.65;;;2.10;;
21138;SDS011;10727;43.600;1.444;2023-07-20T14:57:16;7.20;;;2.45;;
21138;SDS011;10727;43.600;1.444;2023-07-20T15:00:23;4.38;;;2.20;;
21138;SDS011;10727;43.600;1.444;2023-07-20T15:03:28;4.50;;;2.35;;
21138;SDS011;10727;43.600;1.444;2023-07-20T15:06:34;3.80;;;2.40;;
21138;SDS011;10727;43.600;1.444;2023-07-20T15:09:39;6.43;;;2.42;;
21138;SDS011;10727;43.600;1.444;2023-07-20T15:12:44;7.38;;;2.20;;
21138;SDS011;10727;43.600;1.444;2023-07-20T15:15:51;2.70;;;2.35;;
21138;SDS011;10727;43.600;1.444;2023-07-20T15:18:56;3.67;;;2.60;;
21138;SDS011;10727;43.600;1.444;2023-07-20T15:22:01;3.45;;;2.60;;
21138;SDS011;10727;43.600;1.444;2023-07-20T15:25:07;4.90;;;2.35;;
21138;SDS011;10727;43.600;1.444;2023-07-20T15:28:13;5.70;;;2.17;;
21138;SDS011;10727;43.600;1.444;2023-07-20T15:31:19;4.15;;;2.22;;
21138;SDS011;10727;43.600;1.444;2023-07-20T15:34:24;4.60;;;2.50;;
21138;SDS011;10727;43.600;1.444;2023-07-20T15:37:29;6.00;;;2.35;;
21138;SDS011;10727;43.600;1.444;2023-07-20T15:40:35;5.10;;;2.30;;
21138;SDS011;10727;43.600;1.444;2023-07-20T15:43:40;5.15;;;2.53;;
21138;SDS011;10727;43.600;1.444;2023-07-20T15:46:47;4.75;;;2.70;;
21138;SDS011;10727;43.600;1.444;2023-07-20T15:49:52;5.80;;;2.13;;
21138;SDS011;10727;43.600;1.444;2023-07-20T15:52:57;5.93;;;2.17;;
21138;SDS011;10727;43.600;1.444;2023-07-20T15:56:03;5.30;;;2.20;;
21138;SDS011;10727;43.600;1.444;2023-07-20T15:59:09;4.55;;;2.70;;
21138;SDS011;10727;43.600;1.444;2023-07-20T16:02:16;4.32;;;2.70;;
21138;SDS011;10727;43.600;1.444;2023-07-20T16:05:21;3.95;;;2.50;;
21138;SDS011;10727;43.600;1.444;2023-07-20T16:08:26;6.95;;;2.58;;
21138;SDS011;10727;43.600;1.444;2023-07-20T16:11:30;5.47;;;2.45;;
21138;SDS011;10727;43.600;1.444;2023-07-20T16:14:36;5.60;;;2.80;;
21138;SDS011;10727;43.600;1.444;2023-07-20T16:17:42;5.15;;;2.65;;
21138;SDS011;10727;43.600;1.444;2023-07-20T16:20:47;5.10;;;2.40;;
21138;SDS011;10727;43.600;1.444;2023-07-20T16:23:52;3.92;;;2.67;;
21138;SDS011;10727;43.600;1.444;2023-07-20T16:26:58;4.68;;;2.40;;
21138;SDS011;10727;43.600;1.444;2023-07-20T16:30:04;3.17;;;2.55;;
21138;SDS011;10727;43.600;1.444;2023-07-20T16:33:11;5.57;;;2.92;;
21138;SDS011;10727;43.600;1.444;2023-07-20T16:36:16;5.65;;;3.63;;
21138;SDS011;10727;43.600;1.444;2023-07-20T16:39:21;5.70;;;3.00;;
21138;SDS011;10727;43.600;1.444;2023-07-20T16:42:26;7.55;;;4.72;;
21138;SDS011;10727;43.600;1.444;2023-07-20T16:45:31;7.35;;;3.78;;
21138;SDS011;10727;43.600;1.444;2023-07-20T16:48:39;4.53;;;2.95;;
21138;SDS011;10727;43.600;1.444;2023-07-20T16:51:44;3.70;;;2.60;;
21138;SDS011;10727;43.600;1.444;2023-07-20T16:54:49;4.35;;;2.75;;
21138;SDS011;10727;43.600;1.444;2023-07-20T16:57:54;5.30;;;2.67;;
21138;SDS011;10727;43.600;1.444;2023-07-20T17:01:00;3.80;;;2.60;;
21138;SDS011;10727;43.600;1.444;2023-07-20T17:04:06;5.40;;;3.40;;
21138;SDS011;10727;43.600;1.444;2023-07-20T17:07:11;4.25;;;2.70;;
21138;SDS011;10727;43.600;1.444;2023-07-20T17:10:17;3.75;;;2.67;;
21138;SDS011;10727;43.600;1.444;2023-07-20T17:13:22;4.65;;;3.20;;
21138;SDS011;10727;43.600;1.444;2023-07-20T17:16:27;3.70;;;2.83;;
21138;SDS011;10727;43.600;1.444;2023-07-20T17:19:34;3.72;;;2.50;;
21138;SDS011;10727;43.600;1.444;2023-07-20T17:22:39;5.85;;;2.40;;
21138;SDS011;10727;43.600;1.444;2023-07-20T17:25:45;4.13;;;2.95;;
21138;SDS011;10727;43.600;1.444;2023-07-20T17:28:50;6.50;;;3.20;;
21138;SDS011;10727;43.600;1.444;2023-07-20T17:31:56;4.15;;;2.70;;
21138;SDS011;10727;43.600;1.444;2023-07-20T17:35:02;4.47;;;3.75;;
21138;SDS011;10727;43.600;1.444;2023-07-20T17:38:07;6.43;;;3.30;;
21138;SDS011;10727;43.600;1.444;2023-07-20T17:41:13;4.15;;;3.13;;
21138;SDS011;10727;43.600;1.444;2023-07-20T17:44:18;3.60;;;3.05;;
21138;SDS011;10727;43.600;1.444;2023-07-20T17:47:23;5.13;;;3.05;;
21138;SDS011;10727;43.600;1.444;2023-07-20T17:50:30;5.80;;;3.25;;
21138;SDS011;10727;43.600;1.444;2023-07-20T17:53:35;4.82;;;3.33;;
21138;SDS011;10727;43.600;1.444;2023-07-20T17:56:40;7.75;;;2.95;;
21138;SDS011;10727;43.600;1.444;2023-07-20T17:59:47;4.32;;;2.85;;
21138;SDS011;10727;43.600;1.444;2023-07-20T18:02:52;4.97;;;3.30;;
21138;SDS011;10727;43.600;1.444;2023-07-20T18:06:04;5.03;;;3.38;;
21138;SDS011;10727;43.600;1.444;2023-07-20T18:09:09;8.27;;;3.15;;
21138;SDS011;10727;43.600;1.444;2023-07-20T18:12:14;4.90;;;3.20;;
21138;SDS011;10727;43.600;1.444;2023-07-20T18:15:19;5.57;;;3.53;;
21138;SDS011;10727;43.600;1.444;2023-07-20T18:18:24;5.07;;;3.13;;
21138;SDS011;10727;43.600;1.444;2023-07-20T18:21:31;9.93;;;7.82;;
21138;SDS011;10727;43.600;1.444;2023-07-20T18:24:36;6.28;;;4.35;;
21138;SDS011;10727;43.600;1.444;2023-07-20T18:27:41;6.90;;;3.72;;
21138;SDS011;10727;43.600;1.444;2023-07-20T18:30:47;6.75;;;3.20;;
21138;SDS011;10727;43.600;1.444;2023-07-20T18:33:51;7.07;;;3.97;;
21138;SDS011;10727;43.600;1.444;2023-07-20T18:36:58;6.53;;;3.40;;
21138;SDS011;10727;43.600;1.444;2023-07-20T18:40:03;4.68;;;3.28;;
21138;SDS011;10727;43.600;1.444;2023-07-20T18:43:10;7.60;;;3.00;;